Time;durP1;ratioP1;P1;durP2;ratioP2;P2;SDS_P1;SDS_P2;PMS_P1;PMS_P2;Temp;Humidity;BMP_temperature;BMP_pressure;BME280_temperature;BME280_humidity;BME280_pressure;Samples;Min_cycle;Max_cycle;Signal;HPM_P1;HPM_P2
2021/04/13 00:01:28;;;;;;;6.03;5.43;;;;;;;1.84;87.77;99838.47;6138916;22;103250;-77
2021/04/13 00:04:00;;;;;;;5.90;4.60;;;;;;;2.11;87.93;99837.91;6140100;22;103608;-77
2021/04/13 00:06:32;;;;;;;4.87;4.20;;;;;;;2.29;86.01;99832.31;6140566;22;103171;-77
2021/04/13 00:09:08;;;;;;;5.10;4.60;;;;;;;2.36;85.15;99833.88;6139076;22;102667;-76
2021/04/13 00:11:36;;;;;;;7.93;5.00;;;;;;;2.18;85.92;99834.28;6140545;22;106012;-77
2021/04/13 00:14:05;;;;;;;6.07;4.20;;;;;;;2.27;86.18;99829.72;6140025;22;103727;-79
2021/04/13 00:16:35;;;;;;;6.30;4.20;;;;;;;2.32;85.40;99837.47;6140985;22;102828;-77
2021/04/13 00:19:05;;;;;;;4.67;3.60;;;;;;;2.40;85.09;99838.16;6139979;22;103111;-76
2021/04/13 00:21:38;;;;;;;4.67;3.67;;;;;;;2.42;84.97;99823.34;6140542;22;104296;-76
2021/04/13 00:24:15;;;;;;;4.73;4.33;;;;;;;2.23;85.40;99822.00;6140489;22;104978;-78
2021/04/13 00:26:48;;;;;;;4.53;4.03;;;;;;;2.19;86.96;99826.44;6139368;22;102938;-78
2021/04/13 00:29:21;;;;;;;6.37;5.00;;;;;;;2.12;86.86;99834.41;6140459;22;103051;-77
2021/04/13 00:31:50;;;;;;;5.10;4.60;;;;;;;2.14;87.30;99827.41;6139428;22;103733;-76
2021/04/13 00:34:25;;;;;;;5.43;4.53;;;;;;;2.20;86.87;99833.38;6139885;22;108657;-76
2021/04/13 00:37:08;;;;;;;6.47;4.77;;;;;;;2.34;86.82;99828.72;6140339;22;102662;-78
2021/04/13 00:39:36;;;;;;;5.03;4.30;;;;;;;2.46;86.28;99822.38;6140795;22;102962;-78
2021/04/13 00:42:14;;;;;;;5.37;4.87;;;;;;;2.56;85.26;99831.72;6140175;22;103125;-76
2021/04/13 00:44:47;;;;;;;4.97;4.20;;;;;;;2.53;85.39;99831.78;6140154;22;112664;-77
2021/04/13 00:47:21;;;;;;;3.97;3.57;;;;;;;2.58;85.00;99835.16;6140698;22;103083;-75
2021/04/13 00:49:51;;;;;;;6.33;4.90;;;;;;;2.59;84.82;99841.22;6140326;22;102932;-77
2021/04/13 00:52:23;;;;;;;6.83;4.03;;;;;;;2.60;85.18;99843.81;6138377;22;103862;-76
2021/04/13 00:54:54;;;;;;;5.03;4.57;;;;;;;2.64;84.82;99828.97;6113316;22;104882;-76
2021/04/13 00:57:24;;;;;;;5.80;4.47;;;;;;;2.56;86.17;99839.53;6140520;22;103010;-76
2021/04/13 00:59:52;;;;;;;4.93;4.40;;;;;;;2.46;86.60;99835.44;6138863;22;102939;-76
2021/04/13 01:02:25;;;;;;;4.37;3.87;;;;;;;2.60;86.60;99837.72;6137816;22;103076;-75
2021/04/13 01:04:56;;;;;;;5.73;4.57;;;;;;;2.38;86.43;99844.31;6140097;22;103703;-76
2021/04/13 01:07:31;;;;;;;4.83;3.57;;;;;;;2.41;86.82;99841.63;6113412;22;102803;-79
2021/04/13 01:10:09;;;;;;;4.27;3.73;;;;;;;2.37;86.71;99840.84;6139809;22;102861;-79
2021/04/13 01:12:40;;;;;;;4.70;3.70;;;;;;;2.34;86.98;99846.97;6140174;22;104109;-76
2021/04/13 01:15:12;;;;;;;5.57;4.50;;;;;;;2.39;87.29;99844.25;6139666;22;103742;-76
2021/04/13 01:17:43;;;;;;;5.67;4.03;;;;;;;2.42;86.41;99845.94;6138733;22;102732;-77
2021/04/13 01:20:19;;;;;;;7.10;4.67;;;;;;;2.46;85.96;99840.66;6140073;22;102564;-76
2021/04/13 01:22:51;;;;;;;6.20;5.60;;;;;;;2.41;86.02;99837.28;6140432;22;103139;-76
2021/04/13 01:25:22;;;;;;;5.30;4.80;;;;;;;2.24;87.50;99839.38;6139851;22;103706;-77
2021/04/13 01:27:51;;;;;;;7.00;5.17;;;;;;;2.21;86.71;99839.44;6113965;22;102813;-77
2021/04/13 01:30:21;;;;;;;5.17;4.67;;;;;;;2.11;87.12;99836.16;6113905;22;102871;-77
2021/04/13 01:32:49;;;;;;;6.27;4.77;;;;;;;2.16;86.86;99842.13;6112272;22;105747;-77
2021/04/13 01:35:16;;;;;;;8.03;5.00;;;;;;;2.05;87.21;99843.25;6140186;22;103722;-75
2021/04/13 01:37:54;;;;;;;6.00;5.27;;;;;;;2.01;87.81;99836.38;6139775;22;103022;-76
2021/04/13 01:40:29;;;;;;;7.13;5.47;;;;;;;1.95;87.38;99841.72;6139329;22;102896;-76
2021/04/13 01:42:57;;;;;;;5.30;4.80;;;;;;;1.90;88.12;99840.94;6111799;22;104702;-80
2021/04/13 01:45:27;;;;;;;7.17;5.80;;;;;;;1.88;87.71;99842.75;6139628;22;103719;-75
2021/04/13 01:47:56;;;;;;;6.20;4.97;;;;;;;1.79;88.67;99840.31;6140449;22;103174;-78
2021/04/13 01:50:27;;;;;;;6.83;5.63;;;;;;;1.66;88.62;99837.06;6140037;22;103000;-76
2021/04/13 01:53:03;;;;;;;7.43;6.33;;;;;;;1.38;89.88;99836.69;6139413;22;104024;-77
2021/04/13 01:55:33;;;;;;;7.47;6.70;;;;;;;1.13;92.07;99833.66;6138640;22;103363;-77
2021/04/13 01:58:11;;;;;;;7.93;6.57;;;;;;;1.27;92.66;99843.84;6138829;22;103139;-76
2021/04/13 02:00:46;;;;;;;9.33;6.60;;;;;;;1.47;91.59;99843.47;6125881;22;102930;-81
2021/04/13 02:03:19;;;;;;;6.80;6.10;;;;;;;1.52;89.93;99842.50;6137836;22;105742;-76
2021/04/13 02:05:50;;;;;;;8.67;7.10;;;;;;;1.42;89.90;99845.31;6140189;22;105388;-79
2021/04/13 02:08:24;;;;;;;6.77;6.00;;;;;;;1.29;90.36;99843.81;6138564;22;102932;-79
2021/04/13 02:11:01;;;;;;;11.23;6.17;;;;;;;1.00;91.54;99847.75;6139607;22;103180;-78
2021/04/13 02:13:33;;;;;;;9.87;6.57;;;;;;;1.04;91.93;99856.34;6139988;22;104028;-77
2021/04/13 02:16:05;;;;;;;6.87;5.10;;;;;;;1.23;91.31;99850.00;6140524;22;103711;-79
2021/04/13 02:18:38;;;;;;;6.47;5.30;;;;;;;1.41;90.36;99848.78;6140197;22;102841;-76
2021/04/13 02:21:11;;;;;;;7.27;5.43;;;;;;;1.54;89.14;99845.97;6140136;22;102780;-76
2021/04/13 02:23:45;;;;;;;5.93;5.00;;;;;;;1.55;87.60;99852.88;6128801;22;103856;-75
2021/04/13 02:26:13;;;;;;;7.60;4.97;;;;;;;1.58;87.68;99847.63;6141441;22;103656;-76
2021/04/13 02:28:42;;;;;;;6.97;5.47;;;;;;;1.57;87.62;99850.28;6129635;22;103141;-75
2021/04/13 02:31:14;;;;;;;5.93;5.07;;;;;;;1.32;88.43;99855.03;6113715;22;103348;-76
2021/04/13 02:33:46;;;;;;;6.80;5.37;;;;;;;1.20;89.25;99857.84;6139578;22;103234;-76
2021/04/13 02:36:24;;;;;;;6.03;4.87;;;;;;;1.28;89.08;99853.38;6114104;22;104203;-77
2021/04/13 02:38:54;;;;;;;4.80;4.30;;;;;;;1.41;88.70;99860.06;6140632;22;103646;-76
2021/04/13 02:41:25;;;;;;;7.90;5.53;;;;;;;1.52;87.90;99868.56;6138988;22;103300;-76
2021/04/13 02:43:54;;;;;;;5.50;5.00;;;;;;;1.48;88.05;99869.53;6140634;22;103904;-77
2021/04/13 02:46:26;;;;;;;5.50;5.00;;;;;;;1.40;89.11;99867.94;6140637;22;104845;-76
2021/04/13 02:49:04;;;;;;;5.70;5.20;;;;;;;1.35;89.27;99870.59;6138792;22;102901;-77
2021/04/13 02:51:33;;;;;;;6.37;4.70;;;;;;;1.50;88.62;99867.75;6141692;22;103163;-76
2021/04/13 02:54:01;;;;;;;5.13;4.63;;;;;;;1.62;88.24;99872.75;6139248;22;104071;-78
2021/04/13 02:56:32;;;;;;;4.57;3.80;;;;;;;1.63;88.12;99868.38;6140707;22;103662;-76
2021/04/13 02:59:15;;;;;;;6.30;5.70;;;;;;;1.69;87.98;99870.88;6139036;22;103000;-79
2021/04/13 03:01:50;;;;;;;5.10;4.53;;;;;;;1.74;88.47;99874.28;6140541;22;102834;-78
2021/04/13 03:04:20;;;;;;;7.97;7.20;;;;;;;1.73;88.60;99876.00;6141183;22;103725;-79
2021/04/13 03:06:50;;;;;;;7.70;6.07;;;;;;;1.72;89.41;99871.69;6140061;22;103635;-76
2021/04/13 03:09:20;;;;;;;9.63;7.27;;;;;;;1.78;88.89;99870.69;6140166;22;102866;-77
2021/04/13 03:11:50;;;;;;;9.07;8.17;;;;;;;1.82;88.28;99874.13;6140850;22;102862;-77
2021/04/13 03:14:20;;;;;;;9.17;6.77;;;;;;;1.63;89.84;99877.03;6140832;22;103830;-78
2021/04/13 03:16:50;;;;;;;7.30;5.77;;;;;;;1.75;90.07;99870.75;6141016;22;104932;-77
2021/04/13 03:19:22;;;;;;;7.00;6.23;;;;;;;1.87;89.12;99872.28;6113820;22;103057;-79
2021/04/13 03:21:52;;;;;;;6.47;5.80;;;;;;;1.92;88.06;99866.09;6140775;22;102617;-77
2021/04/13 03:24:24;;;;;;;9.23;7.27;;;;;;;1.70;87.78;99863.03;6112585;22;104833;-76
2021/04/13 03:26:55;;;;;;;8.77;7.97;;;;;;;1.11;90.53;99860.59;6113853;22;103752;-76
2021/04/13 03:29:26;;;;;;;9.83;7.37;;;;;;;1.00;91.50;99867.72;6114656;22;103031;-77
2021/04/13 03:31:55;;;;;;;8.63;7.63;;;;;;;1.01;92.26;99870.28;6140625;22;103383;-78
2021/04/13 03:34:24;;;;;;;10.77;8.00;;;;;;;0.78;92.50;99866.31;6140252;22;105035;-77
2021/04/13 03:36:55;;;;;;;8.67;7.63;;;;;;;0.76;94.37;99865.50;6138931;22;105336;-78
2021/04/13 03:39:27;;;;;;;9.50;8.50;;;;;;;0.65;93.71;99864.78;6140015;22;103034;-79
2021/04/13 03:41:56;;;;;;;9.33;8.20;;;;;;;0.73;93.18;99868.97;6140067;22;103329;-78
2021/04/13 03:44:25;;;;;;;8.97;7.27;;;;;;;0.75;93.40;99871.56;6139844;22;104297;-75
2021/04/13 03:46:53;;;;;;;10.03;7.90;;;;;;;0.77;93.91;99873.25;6138331;22;103938;-77
2021/04/13 03:49:27;;;;;;;8.00;7.20;;;;;;;0.91;92.83;99873.91;6130339;22;102900;-76
2021/04/13 03:51:59;;;;;;;5.80;5.30;;;;;;;1.11;91.48;99871.00;6136530;22;103132;-76
2021/04/13 03:54:29;;;;;;;7.50;6.50;;;;;;;1.06;89.71;99878.03;6137222;22;103875;-76
2021/04/13 03:56:57;;;;;;;8.00;6.53;;;;;;;1.07;90.08;99879.72;6136882;22;105018;-76
2021/04/13 03:59:26;;;;;;;5.50;5.00;;;;;;;1.18;89.72;99883.03;6110940;22;102522;-76
2021/04/13 04:01:54;;;;;;;5.63;5.13;;;;;;;1.26;88.75;99870.78;6137551;22;103233;-76
2021/04/13 04:04:31;;;;;;;5.83;4.80;;;;;;;1.30;88.75;99876.75;6139300;22;103331;-76
2021/04/13 04:07:02;;;;;;;5.50;4.47;;;;;;;1.31;87.82;99879.34;6139346;22;103574;-78
2021/04/13 04:09:37;;;;;;;7.33;5.10;;;;;;;1.32;87.60;99883.66;6138625;22;102979;-75
2021/04/13 04:12:17;;;;;;;6.30;5.70;;;;;;;1.15;87.87;99880.50;6139588;22;103077;-76
2021/04/13 04:14:59;;;;;;;8.27;7.13;;;;;;;0.91;89.30;99883.47;6138067;22;103298;-76
2021/04/13 04:17:29;;;;;;;8.23;7.37;;;;;;;0.62;90.57;99890.84;6138757;22;103742;-75
2021/04/13 04:19:59;;;;;;;7.43;6.67;;;;;;;0.70;91.34;99896.78;6139642;22;102768;-73
2021/04/13 04:22:27;;;;;;;9.70;5.97;;;;;;;0.74;91.69;99898.44;6133166;22;103150;-75
2021/04/13 04:24:55;;;;;;;6.73;5.93;;;;;;;0.79;90.66;99901.84;6136212;22;103224;-75
2021/04/13 04:27:34;;;;;;;7.50;6.23;;;;;;;0.85;90.17;99904.34;6137115;22;104164;-74
2021/04/13 04:30:19;;;;;;;9.67;6.57;;;;;;;0.85;89.68;99906.97;6137964;22;102905;-75
2021/04/13 04:32:47;;;;;;;6.77;5.77;;;;;;;0.72;90.34;99908.91;6135729;22;103059;-75
2021/04/13 04:38:25;;;;;;;6.10;5.50;;;;;;;1.04;89.41;99903.19;5094755;27;103392;-75
2021/04/13 04:40:59;;;;;;;8.77;6.93;;;;;;;0.92;87.83;99906.00;5061482;27;103289;-76
2021/04/13 04:43:54;;;;;;;10.67;7.23;;;;;;;0.70;89.45;99909.78;5042766;27;104361;-76
2021/04/13 04:46:32;;;;;;;7.90;6.73;;;;;;;0.64;91.32;99907.28;5060878;27;103714;-75
2021/04/13 04:49:01;;;;;;;7.27;5.67;;;;;;;0.81;90.80;99910.50;5066265;27;103217;-74
2021/04/13 04:51:29;;;;;;;8.40;6.70;;;;;;;0.85;89.23;99919.97;5061060;27;103005;-74
2021/04/13 04:53:57;;;;;;;8.60;7.60;;;;;;;0.51;90.81;99919.56;5047916;27;105050;-75
2021/04/13 04:56:24;;;;;;;8.57;6.47;;;;;;;0.75;90.77;99924.47;5077117;27;103692;-75
2021/04/13 04:58:51;;;;;;;7.67;6.40;;;;;;;0.76;89.48;99926.16;5081168;27;103237;-74
2021/04/13 05:01:18;;;;;;;6.63;5.77;;;;;;;0.83;89.65;99920.00;5081172;27;103159;-74
2021/04/13 05:03:46;;;;;;;8.03;7.20;;;;;;;0.79;88.97;99922.66;5075493;27;104283;-74
2021/04/13 05:06:13;;;;;;;8.13;7.33;;;;;;;0.81;89.37;99928.72;5075553;27;104340;-74
2021/04/13 05:08:41;;;;;;;8.17;6.97;;;;;;;0.82;88.56;99935.63;5081700;27;103581;-73
2021/04/13 05:11:12;;;;;;;8.50;7.60;;;;;;;0.53;90.13;99930.81;5081172;27;103252;-75
2021/04/13 05:13:39;;;;;;;8.70;6.67;;;;;;;0.48;91.87;99936.06;5061011;27;103486;-74
2021/04/13 05:16:06;;;;;;;6.13;5.53;;;;;;;0.68;91.12;99933.22;5075545;27;103615;-74
2021/04/13 05:18:33;;;;;;;7.93;5.93;;;;;;;0.93;90.52;99938.94;5078982;27;103154;-73
2021/04/13 05:21:00;;;;;;;5.40;4.90;;;;;;;1.07;89.32;99939.59;5077551;27;102589;-74
2021/04/13 05:23:28;;;;;;;11.30;9.13;;;;;;;1.17;88.19;99942.06;5060646;27;104897;-75
2021/04/13 05:25:55;;;;;;;13.43;10.27;;;;;;;1.24;87.36;99950.63;5078081;27;103689;-74
2021/04/13 05:28:23;;;;;;;12.83;9.97;;;;;;;1.29;88.24;99948.84;5069384;27;103166;-76
2021/04/13 05:30:51;;;;;;;12.97;9.57;;;;;;;1.43;88.09;99954.66;5069383;27;103212;-74
2021/04/13 05:33:19;;;;;;;13.27;8.90;;;;;;;1.59;87.06;99948.34;5075464;27;103755;-73
2021/04/13 05:35:46;;;;;;;10.17;8.00;;;;;;;1.71;86.67;99950.72;5057524;27;103201;-72
2021/04/13 05:38:17;;;;;;;10.73;9.00;;;;;;;1.84;86.67;99958.34;5071525;27;103095;-74
2021/04/13 05:40:44;;;;;;;7.43;6.63;;;;;;;1.97;86.50;99963.31;5077949;27;103367;-74
2021/04/13 05:43:13;;;;;;;8.43;7.20;;;;;;;2.04;86.58;99966.66;5072225;27;103425;-74
2021/04/13 05:45:44;;;;;;;7.43;5.83;;;;;;;2.21;86.70;99962.00;5077792;27;104196;-77
2021/04/13 05:48:12;;;;;;;8.10;7.30;;;;;;;2.18;87.23;99967.28;5069470;27;103269;-73
2021/04/13 05:50:42;;;;;;;8.67;6.80;;;;;;;2.38;86.69;99964.28;5066180;27;103308;-76
2021/04/13 05:53:10;;;;;;;6.60;5.90;;;;;;;2.46;85.87;99971.09;5044677;27;103826;-74
2021/04/13 05:55:37;;;;;;;8.40;6.50;;;;;;;2.58;85.58;99968.25;5058222;27;106251;-75
2021/04/13 05:58:08;;;;;;;9.50;6.90;;;;;;;2.75;85.15;99968.72;5059657;27;103039;-75
2021/04/13 06:00:36;;;;;;;12.77;6.47;;;;;;;2.83;84.99;99972.06;5057368;27;103286;-75
2021/04/13 06:03:04;;;;;;;7.80;6.63;;;;;;;2.91;83.98;99970.16;5064093;27;103990;-78
2021/04/13 06:05:32;;;;;;;10.70;6.70;;;;;;;3.01;84.07;99969.91;5042900;27;107230;-74
2021/04/13 06:08:00;;;;;;;8.63;5.10;;;;;;;3.13;83.77;99975.75;5045889;27;103940;-75
2021/04/13 06:10:27;;;;;;;9.60;6.40;;;;;;;3.22;83.51;99969.47;5063807;27;103135;-76
2021/04/13 06:12:56;;;;;;;9.53;6.63;;;;;;;3.29;83.00;99971.88;5064435;27;103837;-75
2021/04/13 06:15:26;;;;;;;11.70;7.53;;;;;;;3.33;83.25;99972.69;5063261;27;104475;-77
2021/04/13 06:17:53;;;;;;;12.60;7.77;;;;;;;3.26;84.48;99971.94;5054605;27;103007;-79
2021/04/13 06:31:02;;;;;;;9.07;7.33;;;;;;;3.08;79.91;99997.63;4909603;23;103835;-77
2021/04/13 06:33:31;;;;;;;7.73;6.97;;;;;;;3.08;79.39;99993.28;4879411;28;104824;-76
2021/04/13 06:36:00;;;;;;;10.33;8.10;;;;;;;3.17;78.81;100003.50;4890612;28;105210;-76
2021/04/13 06:38:28;;;;;;;8.63;7.73;;;;;;;3.64;79.67;99993.72;4892269;28;105568;-77
2021/04/13 06:41:04;;;;;;;10.93;9.23;;;;;;;3.87;78.26;99996.66;4889726;28;103715;-78
2021/04/13 06:43:57;;;;;;;9.90;8.97;;;;;;;3.71;77.63;99995.28;4894275;28;103326;-78
2021/04/13 06:46:36;;;;;;;11.30;8.40;;;;;;;3.85;77.89;100001.91;4883341;28;103596;-76
2021/04/13 06:49:16;;;;;;;9.97;7.93;;;;;;;4.09;77.42;99998.69;4876696;28;104773;-80
2021/04/13 06:51:54;;;;;;;8.97;8.07;;;;;;;4.53;76.55;100000.09;4881358;28;103589;-78
2021/04/13 06:54:36;;;;;;;10.67;7.70;;;;;;;4.47;75.03;99999.41;4879552;28;103609;-76
2021/04/13 06:57:35;;;;;;;9.17;8.27;;;;;;;4.44;74.91;99999.47;4887599;28;105339;-78
2021/04/13 07:00:39;;;;;;;9.17;8.17;;;;;;;4.37;75.80;100008.41;4874201;28;103774;-75
2021/04/13 07:03:18;;;;;;;8.00;7.30;;;;;;;5.07;75.50;99996.81;4865742;28;103294;-77
2021/04/13 07:05:51;;;;;;;9.53;8.63;;;;;;;5.36;73.89;99993.31;4889538;28;103183;-77
2021/04/13 07:08:25;;;;;;;9.97;8.97;;;;;;;4.64;73.84;99999.81;4886357;28;109799;-77
2021/04/13 07:10:59;;;;;;;9.13;8.23;;;;;;;5.10;73.81;99994.09;4888385;28;104754;-76
2021/04/13 07:13:33;;;;;;;13.30;11.30;;;;;;;5.02;72.68;99994.34;4889822;28;103362;-76
2021/04/13 07:16:05;;;;;;;10.00;8.97;;;;;;;4.81;71.75;100000.19;4886976;28;103438;-76
2021/04/13 07:18:40;;;;;;;10.70;9.03;;;;;;;5.04;72.24;99997.78;4885572;28;103784;-81
2021/04/13 07:21:12;;;;;;;9.97;9.07;;;;;;;5.17;72.65;99999.09;4886245;28;103833;-79
2021/04/13 07:23:43;;;;;;;10.73;9.73;;;;;;;5.35;70.34;100007.31;4869876;28;103134;-81
2021/04/13 07:26:19;;;;;;;10.47;9.37;;;;;;;5.38;71.30;100005.47;4888640;28;102965;-75
2021/04/13 07:28:54;;;;;;;10.20;9.20;;;;;;;5.59;70.48;100003.94;4884652;28;103832;-80
2021/04/13 07:31:35;;;;;;;11.33;9.33;;;;;;;5.62;69.48;100001.22;4880441;28;103669;-78
2021/04/13 08:15:57;;;;;;;11.40;10.30;;;;;;;6.80;65.61;100011.16;5014777;23;104867;-78
2021/04/13 08:18:30;;;;;;;9.07;8.13;;;;;;;6.80;66.09;100013.78;4853145;28;107762;-78
2021/04/13 08:21:18;;;;;;;9.37;8.50;;;;;;;7.89;62.73;100003.38;4846464;28;103644;-77
2021/04/13 08:23:46;;;;;;;9.23;8.07;;;;;;;7.34;64.75;100010.00;4858390;28;104392;-77
2021/04/13 08:26:43;;;;;;;9.80;8.90;;;;;;;7.22;63.90;100006.06;4865455;28;105390;-77
2021/04/13 08:29:17;;;;;;;10.13;9.13;;;;;;;6.98;62.54;100007.88;4855293;28;104101;-77
2021/04/13 08:35:01;;;;;;;10.40;8.67;;;;;;;5.70;65.71;100012.31;4861871;28;104658;-77
2021/04/13 08:37:36;;;;;;;9.03;8.13;;;;;;;5.53;67.13;100017.25;4865966;28;104046;-77
2021/04/13 08:40:23;;;;;;;9.90;8.17;;;;;;;7.36;61.14;100014.28;4864556;28;104921;-78
2021/04/13 08:42:59;;;;;;;8.23;7.50;;;;;;;9.39;59.26;99997.63;4864846;28;103417;-78
2021/04/13 08:45:33;;;;;;;8.37;7.57;;;;;;;7.10;60.63;100009.19;4856186;28;103813;-77
2021/04/13 08:48:12;;;;;;;8.60;7.30;;;;;;;8.21;59.55;100004.69;4851798;28;103835;-77
2021/04/13 08:50:41;;;;;;;8.00;7.30;;;;;;;8.22;57.21;100007.28;4861446;28;103800;-76
2021/04/13 08:53:11;;;;;;;8.30;7.37;;;;;;;8.56;57.74;100002.28;4862281;28;103303;-76
2021/04/13 08:55:48;;;;;;;8.40;7.63;;;;;;;8.26;56.55;100003.59;4862235;28;103198;-77
2021/04/13 08:58:33;;;;;;;7.67;7.07;;;;;;;8.66;56.48;100006.25;4857324;28;105263;-76
2021/04/13 09:01:02;;;;;;;10.00;8.40;;;;;;;9.71;54.49;99999.56;4854138;28;104208;-77
2021/04/13 09:03:42;;;;;;;8.83;7.70;;;;;;;9.28;55.47;100002.56;4860756;28;103866;-76
2021/04/13 09:06:13;;;;;;;8.70;7.80;;;;;;;9.68;52.99;100007.66;4852655;28;103239;-77
2021/04/13 09:08:53;;;;;;;9.07;8.27;;;;;;;8.41;55.05;100007.38;4853417;28;104043;-77
2021/04/13 09:11:30;;;;;;;9.43;8.07;;;;;;;7.80;58.69;100003.78;4863109;28;104128;-76
2021/04/13 09:14:09;;;;;;;8.37;7.70;;;;;;;7.22;57.59;100010.47;4857852;28;103155;-77
2021/04/13 09:16:42;;;;;;;8.63;7.93;;;;;;;7.78;56.22;100008.25;4848855;28;103369;-76
2021/04/13 09:19:23;;;;;;;9.17;8.27;;;;;;;7.38;58.40;100008.97;4876168;28;105600;-76
2021/04/13 09:21:52;;;;;;;8.40;7.63;;;;;;;7.58;56.63;99999.38;4863975;28;104779;-77
2021/04/13 09:24:24;;;;;;;9.00;8.03;;;;;;;7.08;58.79;100002.25;4867019;28;102986;-76
2021/04/13 09:27:12;;;;;;;8.97;8.07;;;;;;;7.88;56.96;100007.81;4859232;28;102688;-76
2021/04/13 09:29:45;;;;;;;8.83;8.13;;;;;;;7.37;56.60;100005.50;4852371;28;103369;-77
2021/04/13 09:32:42;;;;;;;9.03;8.17;;;;;;;7.50;57.85;100004.09;4875357;28;105106;-76
2021/04/13 09:35:30;;;;;;;8.87;8.00;;;;;;;8.00;59.18;100006.47;4868203;28;103934;-77
2021/04/13 09:38:13;;;;;;;8.77;7.97;;;;;;;9.39;56.96;100004.69;4861007;28;102623;-76
2021/04/13 09:40:48;;;;;;;9.73;8.93;;;;;;;8.79;54.99;99992.50;4864211;28;103616;-76
2021/04/13 09:43:30;;;;;;;9.17;8.33;;;;;;;8.43;55.18;99998.50;4879700;28;104843;-75
2021/04/13 09:46:02;;;;;;;7.10;6.50;;;;;;;8.23;51.35;99998.44;4857571;28;103681;-76
2021/04/13 09:49:11;;;;;;;7.70;7.00;;;;;;;8.81;51.56;99998.59;4865481;28;103242;-75
2021/04/13 09:51:55;;;;;;;8.40;7.70;;;;;;;7.95;54.46;99992.63;4866225;28;104816;-76
2021/04/13 09:54:30;;;;;;;11.10;8.43;;;;;;;7.34;55.00;99988.97;4859079;28;104785;-76
2021/04/13 09:57:23;;;;;;;8.80;8.03;;;;;;;6.93;56.25;99998.44;4861696;28;103127;-76
2021/04/13 10:00:06;;;;;;;8.10;7.30;;;;;;;7.11;57.59;99991.63;4859780;28;103043;-76
2021/04/13 10:03:03;;;;;;;11.30;8.33;;;;;;;6.69;58.54;99994.06;4869891;28;103629;-74
2021/04/13 10:05:33;;;;;;;8.03;7.33;;;;;;;6.71;56.89;99995.72;4855637;28;104232;-73
2021/04/13 10:08:09;;;;;;;7.80;7.00;;;;;;;7.05;56.51;99997.97;4868842;28;103128;-74
2021/04/13 10:10:41;;;;;;;7.20;6.50;;;;;;;7.56;56.51;99985.44;4868937;28;103316;-74
2021/04/13 10:14:01;;;;;;;7.53;6.83;;;;;;;8.90;51.31;99980.56;4867514;28;103291;-74
2021/04/13 10:16:34;;;;;;;6.90;6.30;;;;;;;9.75;52.17;99969.47;4857102;28;104841;-74
2021/04/13 10:19:25;;;;;;;8.10;7.37;;;;;;;9.93;52.62;99980.06;4864477;28;103597;-74
2021/04/13 10:22:20;;;;;;;7.63;6.93;;;;;;;8.74;52.88;99985.69;4849480;29;103305;-75
2021/04/13 10:25:27;;;;;;;8.43;7.60;;;;;;;7.55;54.62;99978.44;4869462;28;104864;-75
2021/04/13 10:28:08;;;;;;;8.13;7.43;;;;;;;6.97;52.01;99984.25;4848982;29;105149;-74
2021/04/13 10:31:14;;;;;;;7.27;6.57;;;;;;;6.72;52.33;99983.44;4864427;28;103231;-74
2021/04/13 10:34:31;;;;;;;7.03;6.37;;;;;;;7.82;52.55;99973.88;4860112;28;105079;-75
2021/04/13 10:37:39;;;;;;;6.40;5.80;;;;;;;8.54;50.45;99971.66;4856301;28;105180;-74
2021/04/13 10:43:20;;;;;;;8.10;7.37;;;;;;;7.81;50.23;99963.38;5099901;27;103012;-77
2021/04/13 10:46:05;;;;;;;7.57;6.90;;;;;;;8.18;50.56;99963.56;5053496;27;103224;-74
2021/04/13 10:48:48;;;;;;;7.00;6.40;;;;;;;7.76;50.09;99974.13;5073961;27;103843;-76
2021/04/13 10:51:52;;;;;;;6.17;5.57;;;;;;;7.43;49.57;99968.44;5064963;27;103877;-77
2021/04/13 10:54:42;;;;;;;6.50;5.80;;;;;;;7.51;49.76;99971.63;5048788;27;103068;-76
2021/04/13 10:57:42;;;;;;;6.57;5.97;;;;;;;7.42;49.43;99960.59;5062968;27;104215;-77
2021/04/13 11:00:36;;;;;;;8.00;6.63;;;;;;;8.91;47.48;99944.53;5064901;27;108688;-77
2021/04/13 11:04:07;;;;;;;6.43;5.83;;;;;;;8.99;47.38;99945.03;5071449;27;105072;-75
2021/04/13 11:07:12;;;;;;;6.77;5.80;;;;;;;9.57;45.39;99938.69;5000162;28;104044;-76
2021/04/13 11:10:06;;;;;;;18.83;17.23;;;;;;;10.77;44.63;99933.41;4979655;28;103735;-78
2021/04/13 11:12:57;;;;;;;6.67;6.07;;;;;;;10.15;44.10;99927.91;5058666;27;105406;-80
2021/04/13 11:16:03;;;;;;;5.03;4.40;;;;;;;9.51;43.37;99930.25;5063944;27;103538;-77
2021/04/13 11:18:57;;;;;;;5.00;4.60;;;;;;;8.73;42.71;99941.81;5037757;27;103426;-78
2021/04/13 11:21:57;;;;;;;4.87;4.47;;;;;;;9.61;41.86;99932.34;5087206;27;103528;-76
2021/04/13 11:24:40;;;;;;;5.17;4.70;;;;;;;10.34;42.16;99933.94;5077585;27;102937;-78
2021/04/13 11:27:37;;;;;;;5.67;5.13;;;;;;;10.65;44.00;99926.13;5054787;27;104031;-78
2021/04/13 11:30:24;;;;;;;5.17;4.77;;;;;;;10.03;43.74;99937.28;5073712;27;103322;-77
2021/04/13 11:33:27;;;;;;;6.33;5.30;;;;;;;10.72;43.13;99914.25;5086756;27;102935;-80
2021/04/13 11:36:06;;;;;;;5.77;5.27;;;;;;;9.66;43.59;99914.50;5043396;27;104820;-78
2021/04/13 11:38:49;;;;;;;5.70;5.20;;;;;;;8.79;45.56;99924.00;5061219;27;105060;-79
2021/04/13 11:41:54;;;;;;;5.03;4.53;;;;;;;8.34;44.30;99921.66;5065787;27;105759;-78
2021/04/13 11:44:31;;;;;;;5.47;4.97;;;;;;;8.12;47.26;99924.34;5086475;27;102620;-81
2021/04/13 11:47:09;;;;;;;5.60;4.90;;;;;;;8.05;46.85;99930.78;5077543;27;103745;-80
2021/04/13 11:49:46;;;;;;;5.00;4.50;;;;;;;8.38;47.07;99917.97;5073161;27;103091;-80
2021/04/13 11:52:25;;;;;;;5.93;4.60;;;;;;;8.50;46.33;99923.56;5061198;27;102942;-79
2021/04/13 11:54:54;;;;;;;5.47;5.07;;;;;;;8.78;50.10;99920.53;5053032;27;103032;-79
2021/04/13 11:57:25;;;;;;;6.60;6.00;;;;;;;9.52;51.25;99913.47;5052397;27;103316;-79
2021/04/13 12:00:25;;;;;;;6.40;5.80;;;;;;;10.29;49.06;99920.13;5052281;27;105012;-77
2021/04/13 12:03:06;;;;;;;7.37;6.30;;;;;;;10.51;47.20;99920.72;5036047;27;102705;-76
2021/04/13 12:05:45;;;;;;;6.90;6.20;;;;;;;10.75;45.72;99911.47;5058406;27;103997;-77
2021/04/13 12:08:40;;;;;;;6.47;5.87;;;;;;;11.36;46.36;99905.44;5029105;27;104975;-77
2021/04/13 12:11:09;;;;;;;6.10;5.30;;;;;;;11.83;45.30;99910.69;5052573;27;104127;-78
2021/04/13 12:13:41;;;;;;;5.50;5.00;;;;;;;13.10;43.14;99903.72;5054786;27;102722;-79
2021/04/13 12:16:10;;;;;;;6.83;6.13;;;;;;;11.31;42.91;99912.78;5060196;27;102731;-78
2021/04/13 12:19:00;;;;;;;5.87;5.37;;;;;;;10.13;45.89;99908.66;5035249;27;105272;-79
2021/04/13 12:21:45;;;;;;;4.53;4.13;;;;;;;9.75;45.68;99908.78;5068076;27;103224;-78
2021/04/13 12:24:42;;;;;;;4.90;4.40;;;;;;;8.97;44.93;99908.22;5033496;27;103528;-78
2021/04/13 12:27:45;;;;;;;4.10;3.80;;;;;;;10.03;44.16;99907.38;5045219;27;103024;-79
2021/04/13 12:30:35;;;;;;;4.17;3.77;;;;;;;9.97;42.53;99905.03;5035298;27;104935;-78
2021/04/13 12:33:04;;;;;;;3.63;3.33;;;;;;;9.81;41.33;99903.19;5059809;27;104758;-78
2021/04/13 12:35:56;;;;;;;4.67;3.40;;;;;;;10.72;41.80;99893.13;5060233;27;104308;-78
2021/04/13 12:38:50;;;;;;;4.23;3.77;;;;;;;10.54;41.24;99894.13;5063048;27;103054;-73
2021/04/13 12:41:21;;;;;;;3.90;3.60;;;;;;;10.55;40.83;99889.69;5059789;27;105049;-78
2021/04/13 12:43:50;;;;;;;3.80;3.50;;;;;;;10.38;41.89;99883.53;5063945;27;104739;-78
2021/04/13 12:46:20;;;;;;;3.90;3.60;;;;;;;11.71;39.98;99891.06;5035793;27;103099;-79
2021/04/13 12:48:49;;;;;;;4.10;3.70;;;;;;;10.38;41.73;99887.97;5055668;27;103486;-77
2021/04/13 12:51:24;;;;;;;4.23;3.40;;;;;;;8.99;44.75;99889.66;5040382;27;103970;-76
2021/04/13 12:54:13;;;;;;;4.43;4.03;;;;;;;8.21;46.34;99899.38;5063824;27;107925;-75
2021/04/13 12:56:47;;;;;;;4.20;3.80;;;;;;;8.12;48.50;99906.78;5065078;27;103054;-77
2021/04/13 12:59:18;;;;;;;4.07;3.77;;;;;;;7.86;48.92;99909.66;5057544;27;103299;-78
2021/04/13 13:01:46;;;;;;;4.60;4.20;;;;;;;7.94;49.34;99914.63;5056861;27;103144;-76
2021/04/13 13:04:17;;;;;;;4.70;4.00;;;;;;;8.13;48.51;99905.00;5017307;27;105402;-72
2021/04/13 13:06:52;;;;;;;3.90;3.60;;;;;;;7.55;48.04;99894.28;5068994;27;103023;-73
2021/04/13 13:09:27;;;;;;;4.00;3.60;;;;;;;8.22;47.01;99899.34;5067885;27;103149;-72
2021/04/13 13:12:01;;;;;;;4.57;3.93;;;;;;;7.80;45.62;99902.03;5068262;27;105252;-75
2021/04/13 13:14:31;;;;;;;3.87;3.57;;;;;;;7.99;44.51;99899.47;5064870;27;105650;-75
2021/04/13 13:17:00;;;;;;;4.57;3.50;;;;;;;8.05;44.24;99893.94;5056295;27;103665;-74